Time;durP1;ratioP1;P1;durP2;ratioP2;P2;SDS_P1;SDS_P2;PMS_P1;PMS_P2;Temp;Humidity;BMP_temperature;BMP_pressure;BME280_temperature;BME280_humidity;BME280_pressure;Samples;Min_cycle;Max_cycle;Signal;HPM_P1;HPM_P2
2020/12/01 00:03:26;;;;;;;16.55;10.63;;;-1.70;75.80;;;;;;6150058;23;20151;-70
2020/12/01 00:09:15;;;;;;;18.95;12.05;;;-1.80;75.00;;;;;;6150615;23;20167;-70
2020/12/01 00:15:03;;;;;;;15.05;9.43;;;-1.90;74.60;;;;;;6150554;23;20582;-71
2020/12/01 00:17:30;;;;;;;17.95;9.50;;;-1.90;74.60;;;;;;6151004;23;20472;-71
2020/12/01 00:23:19;;;;;;;23.48;10.80;;;-2.00;75.10;;;;;;6150049;23;20155;-71
2020/12/01 00:29:07;;;;;;;16.40;10.68;;;-2.00;76.30;;;;;;6151091;23;20139;-71
2020/12/01 00:31:37;;;;;;;17.67;10.55;;;-2.00;75.60;;;;;;6151099;23;20168;-71
2020/12/01 00:34:04;;;;;;;15.27;9.18;;;-2.00;75.70;;;;;;6150326;23;20164;-71
2020/12/01 00:36:30;;;;;;;19.30;11.77;;;-2.00;75.70;;;;;;6150745;23;20251;-71
2020/12/01 00:38:58;;;;;;;16.92;10.68;;;-1.90;75.10;;;;;;6147960;23;20245;-71
2020/12/01 00:41:24;;;;;;;17.00;10.05;;;-1.90;74.70;;;;;;6151387;23;20266;-71
2020/12/01 00:43:52;;;;;;;18.75;10.57;;;-2.00;74.70;;;;;;6152589;23;20472;-70
2020/12/01 00:46:25;;;;;;;18.10;10.45;;;-2.00;75.10;;;;;;6151894;23;20152;-71
2020/12/01 00:48:52;;;;;;;16.77;9.70;;;-2.00;75.00;;;;;;6152338;23;20511;-71
2020/12/01 00:51:19;;;;;;;22.17;12.07;;;-2.10;75.60;;;;;;6152224;23;20185;-70
2020/12/01 00:53:46;;;;;;;15.73;10.35;;;-2.10;75.80;;;;;;6151650;23;20163;-71
2020/12/01 00:56:32;;;;;;;17.92;10.45;;;-2.10;76.00;;;;;;6151833;22;20164;-71
2020/12/01 00:58:59;;;;;;;15.90;9.48;;;-2.10;76.10;;;;;;6152398;23;20197;-71
2020/12/01 01:01:28;;;;;;;18.08;10.23;;;-2.00;75.60;;;;;;6151974;23;20179;-70
2020/12/01 01:03:54;;;;;;;19.48;11.50;;;-2.00;75.80;;;;;;6152018;22;20164;-71
2020/12/01 01:06:22;;;;;;;16.85;10.68;;;-1.90;75.50;;;;;;6152034;23;20191;-71
2020/12/01 01:12:11;;;;;;;20.90;10.93;;;-2.00;74.70;;;;;;6151410;23;20395;-71
2020/12/01 01:14:38;;;;;;;15.98;9.25;;;-1.90;74.50;;;;;;6152088;23;20438;-71
2020/12/01 01:17:04;;;;;;;16.75;9.65;;;-1.90;74.10;;;;;;6152020;22;20160;-71
2020/12/01 01:19:50;;;;;;;17.15;10.57;;;-2.00;73.20;;;;;;6152268;23;20227;-71
2020/12/01 01:22:17;;;;;;;17.77;11.82;;;-2.00;73.00;;;;;;6151783;23;20153;-71
2020/12/01 01:25:15;;;;;;;17.40;10.38;;;-2.00;73.30;;;;;;6152047;23;20156;-71
2020/12/01 01:31:04;;;;;;;17.30;11.05;;;-2.00;73.40;;;;;;6151397;23;20470;-71
2020/12/01 01:36:53;;;;;;;17.23;8.82;;;-2.10;73.30;;;;;;6151450;23;20163;-71
2020/12/01 01:43:03;;;;;;;19.85;9.73;;;-2.10;73.20;;;;;;6122151;23;20187;-71
2020/12/01 01:45:39;;;;;;;20.42;11.43;;;-2.20;72.30;;;;;;6122836;23;20184;-71
2020/12/01 01:51:30;;;;;;;16.75;9.23;;;-2.30;72.60;;;;;;6121564;23;20155;-71
2020/12/01 01:53:57;;;;;;;17.67;11.02;;;-2.30;72.60;;;;;;6122394;23;20231;-71
2020/12/01 01:59:49;;;;;;;21.23;10.50;;;-2.30;73.80;;;;;;6122305;23;20229;-71
2020/12/01 02:03:10;;;;;;;18.10;9.93;;;-2.20;74.10;;;;;;6122922;23;20214;-71
2020/12/01 02:05:36;;;;;;;18.98;12.02;;;-2.20;74.70;;;;;;6121525;23;20160;-71
2020/12/01 02:08:14;;;;;;;22.50;10.98;;;-2.20;74.70;;;;;;6122310;23;20160;-70
2020/12/01 02:10:40;;;;;;;18.42;11.88;;;-2.20;74.90;;;;;;6123049;23;20475;-71
2020/12/01 02:13:07;;;;;;;17.30;10.93;;;-2.20;74.10;;;;;;6121953;23;20161;-71
2020/12/01 02:15:34;;;;;;;19.25;10.20;;;-2.20;74.50;;;;;;6122245;23;20165;-71
2020/12/01 02:18:00;;;;;;;19.20;10.63;;;-2.10;74.70;;;;;;6122646;23;20153;-71
2020/12/01 02:23:50;;;;;;;19.15;11.20;;;-2.00;73.90;;;;;;6122010;23;20140;-71
2020/12/01 02:33:00;;;;;;;18.75;9.57;;;-2.00;74.20;;;;;;6122356;23;20190;-71
2020/12/01 02:38:49;;;;;;;24.33;10.13;;;-1.90;73.90;;;;;;6121518;23;20179;-71
2020/12/01 02:41:17;;;;;;;16.27;10.38;;;-1.90;74.00;;;;;;6141980;23;20200;-71
2020/12/01 02:43:44;;;;;;;18.75;10.40;;;-1.80;74.50;;;;;;6151289;22;20645;-71
2020/12/01 02:46:11;;;;;;;18.63;10.15;;;-1.80;74.30;;;;;;6152255;23;20525;-71
2020/12/01 02:51:59;;;;;;;24.25;12.73;;;-1.80;73.40;;;;;;6150714;23;20564;-70
2020/12/01 02:54:26;;;;;;;19.67;10.30;;;-1.80;73.30;;;;;;6151126;23;20156;-71
2020/12/01 02:56:53;;;;;;;15.18;10.77;;;-1.80;73.70;;;;;;6151238;23;20187;-71
2020/12/01 03:02:43;;;;;;;16.42;10.10;;;-1.90;73.70;;;;;;6151116;23;20245;-71
2020/12/01 03:08:31;;;;;;;20.77;11.00;;;-2.10;73.70;;;;;;6150971;23;20196;-71
2020/12/01 03:14:21;;;;;;;17.90;11.30;;;-2.20;73.40;;;;;;6150417;23;20586;-70
2020/12/01 03:16:49;;;;;;;14.93;9.52;;;-2.20;73.60;;;;;;6152033;23;20152;-70
2020/12/01 03:22:39;;;;;;;21.70;9.57;;;-2.20;74.50;;;;;;6151174;23;20155;-70
2020/12/01 03:28:29;;;;;;;19.05;10.63;;;-2.30;74.60;;;;;;6151054;23;20155;-70
2020/12/01 03:31:41;;;;;;;18.67;11.27;;;-2.30;75.60;;;;;;6151851;23;20158;-70
2020/12/01 03:40:52;;;;;;;15.10;9.75;;;-2.30;76.30;;;;;;6149362;23;20673;-71
2020/12/01 03:43:44;;;;;;;20.60;10.60;;;-2.20;76.70;;;;;;6151636;23;20210;-71
2020/12/01 03:46:10;;;;;;;14.70;8.70;;;-2.20;77.00;;;;;;6151134;23;20179;-71
2020/12/01 03:48:37;;;;;;;17.55;9.40;;;-2.20;76.70;;;;;;6151527;22;20469;-70
2020/12/01 03:51:03;;;;;;;17.52;9.98;;;-2.10;76.90;;;;;;6149700;23;20168;-70
2020/12/01 03:54:19;;;;;;;17.65;11.20;;;-2.10;76.90;;;;;;6151281;23;20587;-71
2020/12/01 03:56:48;;;;;;;13.63;8.90;;;-2.00;76.70;;;;;;6151404;23;20459;-71
2020/12/01 03:59:16;;;;;;;19.45;10.43;;;-2.00;76.70;;;;;;6151411;23;20166;-71
2020/12/01 04:01:44;;;;;;;17.48;9.95;;;-1.90;76.90;;;;;;6150832;23;20190;-71
2020/12/01 04:04:10;;;;;;;18.08;11.57;;;-1.90;76.30;;;;;;6151209;23;20164;-71
2020/12/01 04:06:37;;;;;;;18.23;10.10;;;-1.80;76.50;;;;;;6151145;22;20603;-71
2020/12/01 04:09:05;;;;;;;15.32;9.82;;;-1.80;76.60;;;;;;6151839;22;20617;-70
2020/12/01 04:11:31;;;;;;;16.88;11.40;;;-1.80;77.50;;;;;;6151453;22;20148;-71
2020/12/01 04:17:31;;;;;;;16.83;9.23;;;-1.60;77.10;;;;;;6150885;23;20148;-71
2020/12/01 04:19:57;;;;;;;14.20;8.85;;;-1.60;76.80;;;;;;6151213;23;20205;-71
2020/12/01 04:22:24;;;;;;;13.38;8.73;;;-1.50;77.10;;;;;;6151167;23;20176;-71
2020/12/01 04:24:52;;;;;;;14.77;8.63;;;-1.50;77.40;;;;;;6151227;23;20164;-71
2020/12/01 04:27:18;;;;;;;19.48;9.32;;;-1.40;77.40;;;;;;6151487;22;20164;-70
2020/12/01 04:29:46;;;;;;;14.30;8.50;;;-1.40;77.40;;;;;;6151397;22;20171;-71
2020/12/01 04:32:14;;;;;;;16.27;10.25;;;-1.30;77.70;;;;;;6151286;23;20160;-71
2020/12/01 04:35:36;;;;;;;16.55;8.57;;;-1.30;77.90;;;;;;6151784;23;20148;-71
2020/12/01 04:38:39;;;;;;;16.20;8.10;;;-1.20;77.30;;;;;;6151659;23;20156;-70
2020/12/01 04:44:31;;;;;;;14.63;8.90;;;-1.00;77.60;;;;;;6150396;23;20171;-70
2020/12/01 04:47:02;;;;;;;19.15;8.98;;;-1.10;77.70;;;;;;6151023;23;20554;-71
2020/12/01 04:49:31;;;;;;;14.98;8.40;;;-1.00;78.30;;;;;;6150479;23;20174;-71
2020/12/01 04:52:28;;;;;;;14.43;8.80;;;-1.00;77.70;;;;;;6151022;23;20175;-71
2020/12/01 04:58:38;;;;;;;12.65;7.57;;;-0.90;77.80;;;;;;6150647;23;20156;-71
2020/12/01 05:01:10;;;;;;;11.35;6.28;;;-0.80;77.80;;;;;;6153257;23;20673;-71
2020/12/01 05:10:06;;;;;;;11.40;6.28;;;-0.80;78.30;;;;;;6150262;23;20609;-70
2020/12/01 05:12:36;;;;;;;9.27;6.82;;;-0.70;77.40;;;;;;6146125;23;20166;-71
2020/12/01 05:18:15;;;;;;;12.35;7.50;;;-0.60;78.00;;;;;;6149941;23;20155;-71
2020/12/01 05:20:46;;;;;;;10.63;6.43;;;-0.50;78.00;;;;;;6151589;22;20201;-71
2020/12/01 05:23:17;;;;;;;15.23;8.35;;;-0.50;77.90;;;;;;6150736;22;20152;-71
2020/12/01 05:32:32;;;;;;;10.25;6.63;;;-0.30;78.00;;;;;;6151320;23;20175;-71
2020/12/01 05:38:24;;;;;;;12.73;7.25;;;-0.30;78.30;;;;;;6152229;23;20194;-71
2020/12/01 05:41:31;;;;;;;9.65;5.65;;;-0.20;78.10;;;;;;6151177;23;20206;-71
2020/12/01 05:43:59;;;;;;;12.27;6.18;;;-0.20;78.20;;;;;;6122738;23;20160;-71
2020/12/01 05:46:34;;;;;;;10.60;5.88;;;-0.10;78.10;;;;;;6122975;23;20187;-71
2020/12/01 06:01:45;;;;;;;11.13;6.25;;;0.00;78.10;;;;;;6122674;23;20179;-71
2020/12/01 06:04:30;;;;;;;15.35;9.57;;;0.10;78.20;;;;;;6123079;23;20288;-71
2020/12/01 06:10:26;;;;;;;12.50;7.65;;;0.30;78.00;;;;;;6121954;23;20680;-71
2020/12/01 06:13:43;;;;;;;14.00;7.70;;;0.40;78.00;;;;;;6122842;23;20156;-71
2020/12/01 06:19:29;;;;;;;41.90;22.98;;;0.40;76.60;;;;;;6122112;23;20230;-71
2020/12/01 06:39:20;;;;;;;16.33;10.48;;;0.50;76.10;;;;;;6117824;23;20164;-71
2020/12/01 06:45:27;;;;;;;18.88;10.98;;;0.70;76.40;;;;;;6150938;23;20201;-70
2020/12/01 06:54:59;;;;;;;16.30;10.07;;;0.80;76.20;;;;;;6147524;23;20160;-71
2020/12/01 06:57:31;;;;;;;12.93;7.57;;;0.80;76.40;;;;;;6124744;23;20164;-72
2020/12/01 06:59:58;;;;;;;12.30;7.60;;;0.80;75.80;;;;;;6151516;23;20479;-72
2020/12/01 07:02:30;;;;;;;13.75;6.72;;;0.80;74.50;;;;;;6150966;23;20217;-72
2020/12/01 07:08:32;;;;;;;13.90;8.40;;;0.80;74.80;;;;;;6151957;23;20495;-72
2020/12/01 07:21:01;;;;;;;14.75;9.65;;;0.60;76.50;;;;;;6151057;23;20270;-73
2020/12/01 07:24:00;;;;;;;15.35;9.00;;;0.70;76.30;;;;;;6151205;23;20160;-72
2020/12/01 07:32:26;;;;;;;12.43;7.85;;;0.70;78.10;;;;;;6149923;23;20175;-71
2020/12/01 07:35:30;;;;;;;14.20;8.98;;;0.70;78.60;;;;;;6151224;23;20243;-72
2020/12/01 07:41:24;;;;;;;15.82;9.25;;;0.90;78.10;;;;;;6149744;23;20518;-71
2020/12/01 07:43:59;;;;;;;18.75;9.15;;;1.00;78.00;;;;;;6148551;23;20265;-72
2020/12/01 07:46:27;;;;;;;18.08;10.55;;;1.10;77.80;;;;;;6150461;23;20474;-74
2020/12/01 07:49:00;;;;;;;20.83;10.10;;;1.10;77.90;;;;;;6150514;23;20677;-72
2020/12/01 07:51:30;;;;;;;12.38;9.93;;;1.20;77.80;;;;;;6150468;23;20495;-71
2020/12/01 07:53:58;;;;;;;14.73;9.93;;;1.30;77.40;;;;;;6151192;23;20198;-71
2020/12/01 07:56:30;;;;;;;20.23;10.15;;;1.30;77.40;;;;;;6153207;23;20576;-72
2020/12/01 08:02:36;;;;;;;18.00;10.27;;;1.40;76.80;;;;;;6151006;23;20179;-72
2020/12/01 08:05:15;;;;;;;13.45;9.77;;;1.50;76.80;;;;;;6150920;23;20229;-72
2020/12/01 08:07:42;;;;;;;14.75;10.45;;;1.50;76.60;;;;;;6151203;23;20151;-71
2020/12/01 08:10:23;;;;;;;15.27;10.20;;;1.50;76.50;;;;;;6151826;23;20153;-71
2020/12/01 08:12:53;;;;;;;15.77;11.07;;;1.60;76.50;;;;;;6150589;23;20148;-71
2020/12/01 08:15:22;;;;;;;15.48;10.07;;;1.60;76.40;;;;;;6150734;23;20159;-71
2020/12/01 08:17:51;;;;;;;15.70;8.18;;;1.70;76.30;;;;;;6150540;23;20160;-72
2020/12/01 08:20:26;;;;;;;13.98;8.32;;;1.70;76.40;;;;;;6150920;23;20148;-71
2020/12/01 08:23:07;;;;;;;13.18;8.98;;;1.70;76.60;;;;;;6151318;23;20158;-72
2020/12/01 08:29:20;;;;;;;8.70;5.85;;;1.80;77.10;;;;;;6150212;23;20151;-71
2020/12/01 08:32:15;;;;;;;8.60;6.35;;;1.80;76.50;;;;;;6150830;23;20152;-71
2020/12/01 08:34:50;;;;;;;10.05;6.10;;;1.70;77.20;;;;;;6150263;23;20152;-71
2020/12/01 08:37:42;;;;;;;11.93;6.88;;;1.70;78.60;;;;;;6145955;23;20166;-71
2020/12/01 08:40:15;;;;;;;12.55;7.78;;;1.70;77.60;;;;;;6151034;23;20232;-71
2020/12/01 08:43:26;;;;;;;12.40;7.45;;;1.80;78.40;;;;;;6149519;22;20172;-71
2020/12/01 08:46:09;;;;;;;10.43;6.93;;;1.80;78.90;;;;;;6120830;23;20184;-71
2020/12/01 08:51:34;;;;;;;12.88;10.70;;;2.00;78.30;;;;;;6120930;23;20618;-71
2020/12/01 09:00:58;;;;;;;14.15;10.70;;;2.20;77.50;;;;;;6121273;23;20137;-71
2020/12/01 09:03:25;;;;;;;16.08;9.35;;;2.30;76.90;;;;;;6122948;23;20262;-71
2020/12/01 09:06:29;;;;;;;14.00;8.40;;;2.40;77.10;;;;;;6121809;23;20239;-71
2020/12/01 09:09:04;;;;;;;12.60;7.60;;;2.40;76.50;;;;;;6122950;23;20591;-71
2020/12/01 09:23:35;;;;;;;9.90;6.30;;;2.80;75.80;;;;;;6122847;23;20153;-71
2020/12/01 09:32:41;;;;;;;9.75;7.15;;;2.80;74.90;;;;;;6122477;23;20453;-71
2020/12/01 09:38:29;;;;;;;7.10;4.90;;;3.00;76.00;;;;;;6122362;23;20152;-71
2020/12/01 09:47:44;;;;;;;10.27;6.38;;;3.00;75.20;;;;;;6152323;23;20158;-71
2020/12/01 09:50:19;;;;;;;9.40;6.88;;;3.00;74.40;;;;;;6152777;23;20231;-71
2020/12/01 09:53:03;;;;;;;10.38;6.43;;;3.00;75.10;;;;;;6147209;23;20171;-71
2020/12/01 10:36:19;;;;;;;9.57;5.95;;;3.60;77.10;;;;;;6151659;23;20247;-71
2020/12/01 10:38:46;;;;;;;10.23;5.68;;;3.60;77.00;;;;;;6152013;22;20159;-71
2020/12/01 10:41:14;;;;;;;10.55;6.13;;;3.60;77.20;;;;;;6151507;23;20187;-71
2020/12/01 10:47:22;;;;;;;6.35;4.30;;;3.70;77.70;;;;;;6122582;23;20239;-71
2020/12/01 10:50:00;;;;;;;11.48;6.18;;;3.70;77.80;;;;;;6120710;23;20210;-71
2020/12/01 10:52:27;;;;;;;5.57;4.95;;;3.70;77.50;;;;;;6122744;23;20184;-71
2020/12/01 10:55:03;;;;;;;8.90;4.57;;;3.70;78.10;;;;;;6122834;23;20153;-71
2020/12/01 10:58:16;;;;;;;10.88;5.65;;;3.70;78.50;;;;;;6121945;23;20596;-71
2020/12/01 11:00:42;;;;;;;13.15;6.90;;;3.70;77.80;;;;;;6120093;23;20180;-71
2020/12/01 11:03:09;;;;;;;42.15;19.35;;;3.70;78.40;;;;;;6122403;23;20214;-71
2020/12/01 11:05:36;;;;;;;10.45;4.72;;;3.70;78.50;;;;;;6121155;23;20161;-71
2020/12/01 11:08:03;;;;;;;13.48;7.25;;;3.70;77.50;;;;;;6122768;23;20149;-71
2020/12/01 11:10:41;;;;;;;18.23;7.60;;;3.70;78.30;;;;;;6120271;23;20153;-71
2020/12/01 11:13:09;;;;;;;13.25;4.97;;;3.70;78.10;;;;;;6120987;23;20214;-71
2020/12/01 11:15:35;;;;;;;7.32;3.97;;;3.70;78.30;;;;;;6121341;23;20200;-71
2020/12/01 11:18:02;;;;;;;54.35;30.25;;;3.80;78.70;;;;;;6121287;23;20165;-71
2020/12/01 11:20:35;;;;;;;13.50;8.05;;;3.80;78.30;;;;;;6120813;23;20161;-71
2020/12/01 11:23:03;;;;;;;7.60;4.55;;;3.80;78.10;;;;;;6121357;23;20161;-72
2020/12/01 11:25:29;;;;;;;14.20;9.55;;;3.90;78.20;;;;;;6120663;23;20196;-72
2020/12/01 11:27:56;;;;;;;10.25;6.45;;;4.00;78.40;;;;;;6121068;23;20195;-72
2020/12/01 11:30:24;;;;;;;10.07;8.23;;;4.00;78.50;;;;;;6121122;23;20200;-71
2020/12/01 11:32:50;;;;;;;8.50;6.45;;;4.00;78.50;;;;;;6120979;23;20218;-71
2020/12/01 11:35:20;;;;;;;6.50;4.80;;;4.10;78.50;;;;;;6121245;23;20196;-72
2020/12/01 11:37:46;;;;;;;8.73;5.70;;;4.10;78.30;;;;;;6120781;23;20218;-72
2020/12/01 11:40:14;;;;;;;8.65;4.43;;;4.10;78.30;;;;;;6120846;23;20172;-72
2020/12/01 11:42:41;;;;;;;11.35;4.93;;;4.10;78.20;;;;;;6121010;23;20243;-72
2020/12/01 11:45:09;;;;;;;6.50;3.35;;;4.10;78.10;;;;;;6124741;23;20214;-71
2020/12/01 11:47:36;;;;;;;4.90;3.42;;;4.10;78.20;;;;;;6150657;23;20164;-72
2020/12/01 11:50:03;;;;;;;8.02;3.90;;;4.20;78.30;;;;;;6149916;23;20164;-71
2020/12/01 11:52:30;;;;;;;7.13;3.72;;;4.30;78.40;;;;;;6151253;22;20443;-71
2020/12/01 11:54:57;;;;;;;6.07;3.75;;;4.30;77.70;;;;;;6150234;23;20594;-71
2020/12/01 11:57:27;;;;;;;5.22;3.22;;;4.30;77.70;;;;;;6150336;23;20268;-72
2020/12/01 12:00:06;;;;;;;6.25;3.35;;;4.40;77.80;;;;;;6151147;23;20159;-71
2020/12/01 12:02:33;;;;;;;5.40;3.80;;;4.40;77.80;;;;;;6151160;22;20186;-71
2020/12/01 12:04:59;;;;;;;12.35;3.10;;;4.40;77.40;;;;;;6150485;22;20209;-71
2020/12/01 12:07:26;;;;;;;5.97;3.60;;;4.50;77.40;;;;;;6150855;23;20160;-70
2020/12/01 12:09:52;;;;;;;4.20;2.80;;;4.40;77.10;;;;;;6149341;23;20217;-71
2020/12/01 12:12:19;;;;;;;6.68;3.33;;;4.40;77.50;;;;;;6150795;23;20243;-71
2020/12/01 12:14:49;;;;;;;6.15;2.88;;;4.30;77.50;;;;;;6151403;23;20172;-71
2020/12/01 12:17:16;;;;;;;13.10;3.88;;;4.30;77.10;;;;;;6151119;22;20598;-71
2020/12/01 12:19:44;;;;;;;5.03;3.00;;;4.30;77.40;;;;;;6150437;23;20251;-71
2020/12/01 12:22:10;;;;;;;6.25;3.60;;;4.20;77.70;;;;;;6151260;23;20184;-70
2020/12/01 12:24:37;;;;;;;6.40;3.67;;;4.20;77.60;;;;;;6150738;23;20671;-70
2020/12/01 12:27:04;;;;;;;5.60;3.45;;;4.20;77.30;;;;;;6151104;23;20160;-71
2020/12/01 12:29:30;;;;;;;6.45;4.15;;;4.20;77.80;;;;;;6150813;23;20160;-70
2020/12/01 12:31:58;;;;;;;6.65;3.63;;;4.20;78.40;;;;;;6151156;23;20202;-71
2020/12/01 12:34:24;;;;;;;5.60;3.40;;;4.20;78.70;;;;;;6150784;23;20170;-71
2020/12/01 12:36:51;;;;;;;5.78;3.33;;;4.20;78.80;;;;;;6151933;23;20529;-71
2020/12/01 12:39:17;;;;;;;5.15;3.40;;;4.20;78.40;;;;;;6152279;23;20164;-71
2020/12/01 12:41:44;;;;;;;6.03;3.70;;;4.30;78.60;;;;;;6152298;23;20223;-71
2020/12/01 12:44:10;;;;;;;7.63;4.32;;;4.30;79.00;;;;;;6152477;23;20492;-71
2020/12/01 12:46:38;;;;;;;5.80;4.38;;;4.30;78.90;;;;;;6152653;22;20266;-70
2020/12/01 12:49:06;;;;;;;5.72;3.97;;;4.30;78.90;;;;;;6151910;23;20638;-70
2020/12/01 12:51:32;;;;;;;7.65;5.35;;;4.30;79.20;;;;;;6151936;23;20185;-71
2020/12/01 12:53:59;;;;;;;12.13;5.72;;;4.30;79.40;;;;;;6152415;22;20269;-71
2020/12/01 12:56:25;;;;;;;7.00;5.85;;;4.30;79.30;;;;;;6152030;23;20183;-70
2020/12/01 12:58:52;;;;;;;10.50;5.88;;;4.40;79.10;;;;;;6152441;23;20234;-72
2020/12/01 13:01:19;;;;;;;12.95;5.90;;;4.40;79.10;;;;;;6151821;23;20219;-72
2020/12/01 13:03:46;;;;;;;7.95;4.60;;;4.40;79.00;;;;;;6152334;23;20167;-71
2020/12/01 13:06:13;;;;;;;8.25;5.53;;;4.40;79.10;;;;;;6151970;23;20610;-70
2020/12/01 13:08:40;;;;;;;6.32;3.95;;;4.40;78.90;;;;;;6152119;23;20198;-70
2020/12/01 13:11:07;;;;;;;7.18;3.90;;;4.50;79.00;;;;;;6151780;23;20203;-71
2020/12/01 13:13:34;;;;;;;9.50;4.22;;;4.50;78.80;;;;;;6152297;22;20486;-70
2020/12/01 13:16:02;;;;;;;7.82;4.72;;;4.50;80.00;;;;;;6152272;22;20182;-70
2020/12/01 13:18:28;;;;;;;6.35;4.10;;;4.60;79.20;;;;;;6152107;23;20164;-71
2020/12/01 13:20:55;;;;;;;6.95;4.35;;;4.60;79.00;;;;;;6151712;23;20191;-70
2020/12/01 13:23:22;;;;;;;6.95;4.57;;;4.60;79.40;;;;;;6152174;23;20160;-70
2020/12/01 13:25:49;;;;;;;8.88;5.18;;;4.60;79.30;;;;;;6151777;23;20676;-70
2020/12/01 13:28:15;;;;;;;11.88;4.80;;;4.60;79.20;;;;;;6152231;22;20195;-71
2020/12/01 13:30:42;;;;;;;8.60;4.32;;;4.60;79.20;;;;;;6151905;23;20202;-71
2020/12/01 13:33:08;;;;;;;7.47;4.30;;;4.60;79.40;;;;;;6152118;23;20564;-70
2020/12/01 13:35:35;;;;;;;9.02;4.88;;;4.50;79.90;;;;;;6152055;23;20337;-71
2020/12/01 13:38:01;;;;;;;6.00;4.80;;;4.50;80.10;;;;;;6152044;23;20168;-70
2020/12/01 13:40:29;;;;;;;7.32;4.90;;;4.50;80.70;;;;;;6152195;22;20221;-70
2020/12/01 13:42:55;;;;;;;6.70;5.70;;;4.50;81.00;;;;;;6151956;23;20299;-71
2020/12/01 13:45:22;;;;;;;6.10;5.05;;;4.60;80.90;;;;;;6151794;22;20266;-70
2020/12/01 13:47:48;;;;;;;5.03;3.95;;;4.60;81.10;;;;;;6151951;23;20164;-71
2020/12/01 13:50:17;;;;;;;6.53;4.47;;;4.60;80.90;;;;;;6151764;23;20164;-71
2020/12/01 13:52:44;;;;;;;7.13;4.75;;;4.60;81.20;;;;;;6152467;22;20474;-70
2020/12/01 13:55:12;;;;;;;7.32;4.80;;;4.70;81.40;;;;;;6152141;23;20164;-70
2020/12/01 13:57:39;;;;;;;10.55;5.53;;;4.70;81.50;;;;;;6151596;23;20164;-70
2020/12/01 14:00:08;;;;;;;6.32;4.80;;;4.80;81.60;;;;;;6151713;22;20167;-70
2020/12/01 14:02:34;;;;;;;6.57;5.05;;;4.80;81.90;;;;;;6152064;23;20191;-70
2020/12/01 14:05:01;;;;;;;13.60;5.75;;;4.80;81.80;;;;;;6151983;23;20209;-70
2020/12/01 14:07:27;;;;;;;7.70;6.20;;;4.90;81.80;;;;;;6151883;23;20168;-70
2020/12/01 14:09:54;;;;;;;23.08;12.30;;;4.90;82.00;;;;;;6151879;23;20525;-70
2020/12/01 14:12:20;;;;;;;16.55;10.48;;;5.00;82.10;;;;;;6151971;23;20191;-71
2020/12/01 14:14:48;;;;;;;9.45;6.47;;;4.90;82.00;;;;;;6151730;22;20171;-71
2020/12/01 14:17:14;;;;;;;8.35;5.20;;;5.00;82.10;;;;;;6152118;23;20160;-71
2020/12/01 14:19:41;;;;;;;8.30;5.40;;;5.00;82.00;;;;;;6151679;23;21032;-70
2020/12/01 14:22:07;;;;;;;8.75;5.90;;;5.00;81.90;;;;;;6151870;23;20215;-70
2020/12/01 14:24:33;;;;;;;8.45;5.40;;;5.00;81.90;;;;;;6151786;23;20159;-71
2020/12/01 14:27:01;;;;;;;7.35;4.72;;;5.00;81.80;;;;;;6151490;23;20191;-70
2020/12/01 14:29:27;;;;;;;10.80;6.15;;;5.00;81.90;;;;;;6152081;22;20167;-70
2020/12/01 14:31:55;;;;;;;12.57;7.00;;;5.00;81.80;;;;;;6152011;23;20167;-71
2020/12/01 14:34:21;;;;;;;11.15;6.47;;;5.00;81.80;;;;;;6152252;22;20191;-71
2020/12/01 14:36:48;;;;;;;11.05;6.43;;;4.90;81.70;;;;;;6151521;23;20203;-71
2020/12/01 14:39:18;;;;;;;13.30;6.55;;;4.90;81.80;;;;;;6151529;23;20168;-71
2020/12/01 14:41:57;;;;;;;11.43;5.97;;;4.90;81.90;;;;;;6151853;23;20180;-71
2020/12/01 14:44:24;;;;;;;8.35;6.32;;;4.80;82.00;;;;;;6151728;23;20148;-70
2020/12/01 14:47:07;;;;;;;8.43;6.15;;;4.80;82.40;;;;;;6152189;22;20188;-72
2020/12/01 14:49:48;;;;;;;10.43;6.03;;;4.70;82.80;;;;;;6151457;23;20954;-71
2020/12/01 14:52:16;;;;;;;11.38;6.72;;;4.70;83.10;;;;;;6151835;23;20152;-72
2020/12/01 14:54:53;;;;;;;8.27;5.88;;;4.60;83.20;;;;;;6151756;23;20164;-72
2020/12/01 14:57:40;;;;;;;7.72;6.72;;;4.60;83.40;;;;;;6152043;23;20179;-71
2020/12/01 15:00:22;;;;;;;7.30;5.00;;;4.50;83.50;;;;;;6152948;23;20159;-71
2020/12/01 15:03:03;;;;;;;6.38;4.50;;;4.50;83.70;;;;;;6151938;23;20199;-71
2020/12/01 15:05:56;;;;;;;11.27;6.85;;;4.40;83.80;;;;;;6151426;23;20152;-70
2020/12/01 15:09:12;;;;;;;5.18;3.90;;;4.30;83.90;;;;;;6151847;23;20152;-72
2020/12/01 15:12:07;;;;;;;7.65;3.70;;;4.30;84.20;;;;;;6169610;23;20160;-71
2020/12/01 15:14:34;;;;;;;7.38;4.97;;;4.20;84.40;;;;;;6151455;23;20622;-71
2020/12/01 15:17:30;;;;;;;5.35;3.78;;;4.10;84.70;;;;;;6151565;23;20164;-71
2020/12/01 15:19:59;;;;;;;6.78;4.57;;;4.10;84.90;;;;;;6151303;23;20195;-70
2020/12/01 15:22:54;;;;;;;7.90;4.93;;;4.10;85.30;;;;;;6151536;23;20195;-71
2020/12/01 15:25:24;;;;;;;7.57;4.63;;;4.00;85.40;;;;;;6153349;23;20171;-71
2020/12/01 15:27:56;;;;;;;8.02;6.75;;;4.00;85.30;;;;;;6151698;23;20206;-71
2020/12/01 15:30:23;;;;;;;8.30;6.13;;;4.00;85.40;;;;;;6151672;23;20491;-71
2020/12/01 15:32:51;;;;;;;8.55;5.65;;;3.90;85.90;;;;;;6151665;23;20221;-71
2020/12/01 15:35:22;;;;;;;10.57;8.73;;;3.90;85.90;;;;;;6151696;23;20665;-71
2020/12/01 15:37:56;;;;;;;10.98;7.72;;;3.90;85.80;;;;;;6151905;23;20456;-71
2020/12/01 15:40:45;;;;;;;12.45;8.35;;;3.90;86.00;;;;;;6151534;23;20187;-71
2020/12/01 15:43:16;;;;;;;16.30;11.63;;;3.80;86.60;;;;;;6151656;23;20184;-71
2020/12/01 15:45:43;;;;;;;12.23;7.80;;;3.80;86.60;;;;;;6151667;23;20233;-71
2020/12/01 15:48:15;;;;;;;15.43;10.45;;;3.70;86.90;;;;;;6151157;23;20243;-71
2020/12/01 15:50:43;;;;;;;14.65;8.70;;;3.70;87.40;;;;;;6151231;23;20167;-71
2020/12/01 15:53:32;;;;;;;12.73;9.80;;;3.70;87.10;;;;;;6151647;23;20188;-71
2020/12/01 15:56:16;;;;;;;20.75;14.05;;;3.70;87.60;;;;;;6151544;23;20156;-71
2020/12/01 15:59:19;;;;;;;22.38;13.00;;;3.70;87.70;;;;;;6151681;23;20148;-71
2020/12/01 16:01:57;;;;;;;18.00;9.88;;;3.70;87.50;;;;;;6150918;23;20217;-72
2020/12/01 16:05:06;;;;;;;14.60;11.13;;;3.70;87.60;;;;;;6151527;23;20213;-71
2020/12/01 16:08:00;;;;;;;18.83;11.30;;;3.60;87.80;;;;;;6151447;23;20186;-72
2020/12/01 16:10:42;;;;;;;15.55;10.82;;;3.60;88.10;;;;;;6150891;23;20164;-71
2020/12/01 16:13:34;;;;;;;18.40;11.32;;;3.50;88.50;;;;;;6151273;23;20159;-71
2020/12/01 16:16:12;;;;;;;15.35;11.20;;;3.60;88.80;;;;;;6151233;23;20196;-71
2020/12/01 16:18:54;;;;;;;15.32;8.85;;;3.60;88.60;;;;;;6150951;23;20152;-71
2020/12/01 16:21:29;;;;;;;12.75;9.45;;;3.60;88.50;;;;;;6150993;22;20229;-71
2020/12/01 16:23:59;;;;;;;18.90;9.63;;;3.70;88.40;;;;;;6151374;23;20186;-71
2020/12/01 16:26:38;;;;;;;12.07;8.57;;;3.70;88.10;;;;;;6151362;22;20163;-71
2020/12/01 16:29:44;;;;;;;10.25;8.32;;;3.70;87.90;;;;;;6151266;23;20159;-71
2020/12/01 16:32:11;;;;;;;11.07;7.07;;;3.70;87.60;;;;;;6166422;23;20164;-71
2020/12/01 16:34:42;;;;;;;10.10;7.13;;;3.80;87.50;;;;;;6151044;23;20229;-71
2020/12/01 16:37:39;;;;;;;8.43;6.53;;;3.70;87.50;;;;;;6151189;23;20198;-70
2020/12/01 16:40:20;;;;;;;11.68;9.65;;;3.80;87.60;;;;;;6151271;22;20156;-71
2020/12/01 16:43:01;;;;;;;14.10;12.55;;;3.80;87.60;;;;;;6150999;23;20171;-71
2020/12/01 16:45:42;;;;;;;21.35;14.13;;;3.80;87.50;;;;;;6150988;23;20184;-71
2020/12/01 16:48:21;;;;;;;14.70;12.15;;;3.80;87.40;;;;;;6150655;23;20660;-71
2020/12/01 16:50:56;;;;;;;12.50;8.70;;;3.80;87.50;;;;;;6151059;23;20461;-71
2020/12/01 16:53:46;;;;;;;11.82;9.70;;;3.80;87.50;;;;;;6151204;23;20152;-71
2020/12/01 16:56:38;;;;;;;14.73;10.73;;;3.80;87.30;;;;;;6150894;23;20234;-71
2020/12/01 16:59:23;;;;;;;14.55;12.55;;;3.80;87.30;;;;;;6151018;23;20180;-71
2020/12/01 17:01:57;;;;;;;22.98;17.02;;;3.80;87.30;;;;;;6150953;23;20230;-71
2020/12/01 17:04:58;;;;;;;19.40;13.55;;;3.80;87.30;;;;;;6150835;23;20205;-71
2020/12/01 17:07:26;;;;;;;15.18;11.85;;;3.80;87.30;;;;;;6150484;23;20187;-71
2020/12/01 17:09:55;;;;;;;13.77;12.32;;;3.80;87.40;;;;;;6150802;23;20160;-71
2020/12/01 17:13:01;;;;;;;15.82;12.15;;;3.80;87.50;;;;;;6150450;23;20191;-71
2020/12/01 17:15:53;;;;;;;13.30;10.98;;;3.80;87.50;;;;;;6150688;23;20159;-71
2020/12/01 17:18:20;;;;;;;13.48;10.38;;;3.80;87.30;;;;;;6150700;23;20155;-72
2020/12/01 17:20:46;;;;;;;15.65;10.90;;;3.80;87.50;;;;;;6150868;23;20205;-71
2020/12/01 17:23:16;;;;;;;13.73;11.98;;;3.80;87.60;;;;;;6151080;23;20212;-71
2020/12/01 17:25:42;;;;;;;21.33;16.90;;;3.80;87.40;;;;;;6152052;23;20226;-71
2020/12/01 17:28:21;;;;;;;21.13;16.25;;;3.80;87.30;;;;;;6151857;23;20171;-71
2020/12/01 17:31:03;;;;;;;19.23;16.02;;;3.80;87.50;;;;;;6152254;23;20214;-72
2020/12/01 17:33:44;;;;;;;20.50;16.70;;;3.80;87.40;;;;;;6152096;23;20159;-71
2020/12/01 17:36:14;;;;;;;25.73;17.05;;;3.80;87.20;;;;;;6152086;23;20195;-71
2020/12/01 17:38:48;;;;;;;21.55;16.70;;;3.80;87.30;;;;;;6152243;23;20153;-71
2020/12/01 17:41:24;;;;;;;23.15;14.90;;;3.80;87.70;;;;;;6152056;23;20152;-72